Time;durP1;ratioP1;P1;durP2;ratioP2;P2;SDS_P1;SDS_P2;PMS_P1;PMS_P2;Temp;Humidity;BMP_temperature;BMP_pressure;BME280_temperature;BME280_humidity;BME280_pressure;Samples;Min_cycle;Max_cycle;Signal;HPM_P1;HPM_P2
2022/07/09 00:01:44;;;;;;;0.60;0.60;;;20.30;84.70;;;;;;5006838;28;20225;-76
2022/07/09 00:04:11;;;;;;;0.70;0.70;;;20.40;85.00;;;;;;5006043;28;20204;-77
2022/07/09 00:06:38;;;;;;;1.33;0.80;;;20.30;85.10;;;;;;5007039;28;20216;-76
2022/07/09 00:09:05;;;;;;;0.73;0.73;;;20.30;85.90;;;;;;5007311;28;20466;-75
2022/07/09 00:11:32;;;;;;;0.70;0.60;;;20.20;85.20;;;;;;5011320;28;20223;-77
2022/07/09 00:14:01;;;;;;;0.60;0.60;;;20.10;85.80;;;;;;5006594;28;20204;-74
2022/07/09 00:16:28;;;;;;;0.50;0.50;;;20.10;86.10;;;;;;5005775;28;20236;-76
2022/07/09 00:18:55;;;;;;;0.50;0.50;;;20.10;86.20;;;;;;5008016;28;20203;-77
2022/07/09 00:21:22;;;;;;;0.50;0.50;;;20.10;86.10;;;;;;5012379;28;20219;-77
2022/07/09 00:23:49;;;;;;;0.60;0.60;;;20.20;86.00;;;;;;5005028;28;20267;-78
2022/07/09 00:26:18;;;;;;;0.60;0.60;;;20.20;85.90;;;;;;5005895;28;20220;-74
2022/07/09 00:28:45;;;;;;;0.50;0.50;;;20.10;86.10;;;;;;5009596;28;20216;-77
2022/07/09 00:31:13;;;;;;;0.70;0.70;;;20.10;86.20;;;;;;5007744;28;20714;-76
2022/07/09 00:33:41;;;;;;;0.60;0.60;;;20.10;86.20;;;;;;5002995;28;20709;-77
2022/07/09 00:36:08;;;;;;;0.60;0.60;;;20.10;86.30;;;;;;5004823;28;20602;-78
2022/07/09 00:38:35;;;;;;;0.50;0.50;;;20.10;86.50;;;;;;5014272;28;21019;-78
2022/07/09 00:41:02;;;;;;;0.90;0.50;;;20.00;86.10;;;;;;5009896;28;20220;-77
2022/07/09 00:43:30;;;;;;;0.95;0.70;;;20.00;86.70;;;;;;5015928;28;20259;-79
2022/07/09 00:45:58;;;;;;;0.60;0.60;;;19.90;86.70;;;;;;5016283;28;20686;-77
2022/07/09 00:48:26;;;;;;;0.70;0.70;;;19.90;87.30;;;;;;5012483;28;20205;-77
2022/07/09 00:50:55;;;;;;;0.88;0.65;;;19.90;87.60;;;;;;5011058;28;20623;-78
2022/07/09 00:53:25;;;;;;;0.55;0.55;;;19.80;87.30;;;;;;5006972;28;20228;-77
2022/07/09 00:55:53;;;;;;;0.70;0.70;;;19.80;87.80;;;;;;5006358;28;20311;-77
2022/07/09 00:58:21;;;;;;;0.60;0.57;;;19.70;87.90;;;;;;5009148;28;20209;-78
2022/07/09 01:00:49;;;;;;;0.80;0.80;;;19.70;87.80;;;;;;5010156;28;20220;-77
2022/07/09 01:03:16;;;;;;;1.50;0.70;;;19.70;87.90;;;;;;5014480;28;20278;-77
2022/07/09 01:05:44;;;;;;;0.50;0.50;;;19.70;88.00;;;;;;5006248;28;20220;-76
2022/07/09 01:08:12;;;;;;;0.60;0.60;;;19.70;88.10;;;;;;5009404;28;20203;-78
2022/07/09 01:10:39;;;;;;;0.73;0.73;;;19.70;88.30;;;;;;5005482;28;20220;-77
2022/07/09 01:13:07;;;;;;;0.77;0.68;;;19.60;88.60;;;;;;5012775;28;20224;-77
2022/07/09 01:15:34;;;;;;;1.02;0.60;;;19.60;88.60;;;;;;5014158;28;20220;-75
2022/07/09 01:18:01;;;;;;;0.93;0.70;;;19.60;88.60;;;;;;5012434;28;20227;-76
2022/07/09 01:20:30;;;;;;;0.60;0.60;;;19.60;88.70;;;;;;5018278;28;20228;-77
2022/07/09 01:22:58;;;;;;;0.77;0.77;;;19.60;89.00;;;;;;5010658;28;20243;-74
2022/07/09 01:25:33;;;;;;;1.17;0.80;;;19.60;89.30;;;;;;5017134;28;20714;-77
2022/07/09 01:28:00;;;;;;;0.60;0.60;;;19.60;89.20;;;;;;5018957;28;20195;-77
2022/07/09 01:30:28;;;;;;;0.57;0.57;;;19.50;89.30;;;;;;5013787;28;20270;-77
2022/07/09 01:32:56;;;;;;;0.60;0.60;;;19.50;89.40;;;;;;5016544;28;20274;-76
2022/07/09 01:35:23;;;;;;;0.60;0.50;;;19.50;89.10;;;;;;5020380;28;20204;-81
2022/07/09 01:37:52;;;;;;;0.73;0.73;;;19.40;89.40;;;;;;5019799;28;20200;-77
2022/07/09 01:40:20;;;;;;;0.60;0.60;;;19.50;89.40;;;;;;5013512;28;20602;-78
2022/07/09 01:42:47;;;;;;;0.70;0.70;;;19.50;89.50;;;;;;5015176;28;20233;-77
2022/07/09 01:45:15;;;;;;;0.63;0.63;;;19.40;89.90;;;;;;5014225;28;20311;-77
2022/07/09 01:47:42;;;;;;;0.73;0.73;;;19.40;90.00;;;;;;5015822;28;20689;-77
2022/07/09 01:50:10;;;;;;;0.60;0.60;;;19.30;90.00;;;;;;5014122;28;20228;-75
2022/07/09 01:52:38;;;;;;;0.70;0.70;;;19.30;90.10;;;;;;5010508;28;20778;-76
2022/07/09 01:55:07;;;;;;;0.95;0.68;;;19.20;90.10;;;;;;5006453;28;20232;-77
2022/07/09 01:57:34;;;;;;;0.57;0.57;;;19.20;90.10;;;;;;5012216;28;20197;-77
2022/07/09 02:00:03;;;;;;;1.10;0.60;;;19.20;90.10;;;;;;5004168;28;20209;-77
2022/07/09 02:02:30;;;;;;;0.70;0.70;;;19.10;90.20;;;;;;5007408;28;20224;-74
2022/07/09 02:04:58;;;;;;;0.88;0.82;;;19.10;90.10;;;;;;5010481;28;20207;-77
2022/07/09 02:07:25;;;;;;;0.47;0.45;;;19.10;90.20;;;;;;5012405;28;20574;-77
2022/07/09 02:09:52;;;;;;;0.52;0.52;;;19.00;90.30;;;;;;5006654;28;20201;-77
2022/07/09 02:12:21;;;;;;;0.68;0.68;;;19.00;90.20;;;;;;5009154;28;20227;-77
2022/07/09 02:14:49;;;;;;;0.73;0.70;;;18.90;90.40;;;;;;5010989;28;20569;-74
2022/07/09 02:17:16;;;;;;;0.68;0.68;;;18.80;90.60;;;;;;5008576;28;20228;-76
2022/07/09 02:19:43;;;;;;;0.60;0.60;;;18.70;90.60;;;;;;5010342;28;20201;-77
2022/07/09 02:22:10;;;;;;;0.70;0.70;;;18.60;90.70;;;;;;5021730;28;20216;-77
2022/07/09 02:24:38;;;;;;;0.70;0.70;;;18.60;91.30;;;;;;5014679;28;20229;-74
2022/07/09 02:27:06;;;;;;;0.73;0.73;;;18.70;91.00;;;;;;5006981;28;20224;-76
2022/07/09 02:29:34;;;;;;;1.10;0.70;;;18.70;90.90;;;;;;5018335;28;20204;-75
2022/07/09 02:32:01;;;;;;;0.80;0.80;;;18.60;91.00;;;;;;5009738;28;20231;-76
2022/07/09 02:34:28;;;;;;;0.82;0.82;;;18.60;90.90;;;;;;5007679;28;20213;-75
2022/07/09 02:36:55;;;;;;;0.70;0.70;;;18.60;91.00;;;;;;5013205;28;20690;-77
2022/07/09 02:39:22;;;;;;;1.00;0.70;;;18.60;91.10;;;;;;5010290;28;20213;-75
2022/07/09 02:41:49;;;;;;;0.82;0.70;;;18.70;91.20;;;;;;5013887;28;20725;-75
2022/07/09 02:49:29;;;;;;;0.80;0.80;;;18.60;91.30;;;;;;5528623;23;20234;-80
2022/07/09 02:51:57;;;;;;;0.70;0.70;;;18.50;91.50;;;;;;5057244;28;20238;-80
2022/07/09 02:54:24;;;;;;;0.60;0.60;;;18.50;91.60;;;;;;5061778;28;20249;-79
2022/07/09 02:56:51;;;;;;;0.70;0.70;;;18.50;91.70;;;;;;5061753;28;20218;-80
2022/07/09 02:59:18;;;;;;;0.90;0.90;;;18.50;91.70;;;;;;5061902;28;20191;-80
2022/07/09 03:01:46;;;;;;;0.73;0.73;;;18.50;91.70;;;;;;5062905;28;20223;-80
2022/07/09 03:04:13;;;;;;;1.17;1.00;;;18.50;91.90;;;;;;5060068;28;20206;-80
2022/07/09 03:06:41;;;;;;;0.73;0.73;;;18.50;91.90;;;;;;5056545;28;20223;-80
2022/07/09 03:09:09;;;;;;;0.73;0.73;;;18.40;91.80;;;;;;5058010;28;20199;-80
2022/07/09 03:11:36;;;;;;;0.85;0.85;;;18.40;92.00;;;;;;5062784;28;20243;-80
2022/07/09 03:14:03;;;;;;;0.77;0.77;;;18.40;92.10;;;;;;5067898;28;20703;-80
2022/07/09 03:16:30;;;;;;;0.93;0.70;;;18.50;92.20;;;;;;5062175;28;20215;-80
2022/07/09 03:18:57;;;;;;;0.80;0.80;;;18.50;92.30;;;;;;5064237;28;20194;-80
2022/07/09 03:21:24;;;;;;;0.85;0.80;;;18.40;92.40;;;;;;5064380;28;20231;-79
2022/07/09 03:23:53;;;;;;;0.90;0.90;;;18.40;92.50;;;;;;5063554;28;20584;-80
2022/07/09 03:26:20;;;;;;;1.10;0.90;;;18.30;92.60;;;;;;5066606;28;20225;-79
2022/07/09 03:28:47;;;;;;;1.15;0.90;;;18.30;92.70;;;;;;5070879;28;20206;-81
2022/07/09 03:31:14;;;;;;;0.70;0.65;;;18.20;92.70;;;;;;5063722;28;20298;-81
2022/07/09 03:33:41;;;;;;;0.80;0.80;;;18.10;92.80;;;;;;5067100;28;20199;-80
2022/07/09 03:36:09;;;;;;;0.80;0.80;;;18.10;93.00;;;;;;5066849;28;20219;-80
2022/07/09 03:38:36;;;;;;;1.02;0.93;;;18.20;93.00;;;;;;5064437;28;20195;-80
2022/07/09 03:41:05;;;;;;;0.70;0.70;;;18.30;93.30;;;;;;5064564;28;20223;-80
2022/07/09 03:43:32;;;;;;;0.80;0.80;;;18.20;93.30;;;;;;5063450;28;20254;-80
2022/07/09 03:45:59;;;;;;;0.70;0.70;;;18.20;93.40;;;;;;5062243;28;20215;-78
2022/07/09 03:48:27;;;;;;;1.05;0.70;;;18.10;93.20;;;;;;5049631;28;20214;-79
2022/07/09 03:50:54;;;;;;;0.80;0.80;;;18.10;93.40;;;;;;5056448;28;20264;-80
2022/07/09 03:53:21;;;;;;;1.00;1.00;;;18.10;93.40;;;;;;5050617;28;20203;-79
2022/07/09 03:55:48;;;;;;;0.60;0.60;;;18.00;93.30;;;;;;5051063;28;20218;-78
2022/07/09 03:58:17;;;;;;;0.80;0.80;;;18.10;93.60;;;;;;5053651;28;20206;-79
2022/07/09 04:00:44;;;;;;;0.70;0.70;;;18.10;93.70;;;;;;5052765;28;20261;-79
2022/07/09 04:03:11;;;;;;;1.40;0.57;;;18.10;93.80;;;;;;5055368;28;20669;-79
2022/07/09 04:05:38;;;;;;;1.73;0.70;;;18.20;93.80;;;;;;5049836;28;20288;-79
2022/07/09 04:08:06;;;;;;;0.90;0.90;;;18.10;94.00;;;;;;5054242;28;20892;-79
2022/07/09 04:10:33;;;;;;;0.65;0.63;;;18.10;94.00;;;;;;5052282;28;20236;-78
2022/07/09 04:13:00;;;;;;;1.10;1.00;;;18.10;94.30;;;;;;5057000;28;20198;-79
2022/07/09 04:15:29;;;;;;;0.65;0.65;;;18.20;94.20;;;;;;5046547;28;20245;-79
2022/07/09 04:17:56;;;;;;;1.27;1.00;;;18.20;94.40;;;;;;5047874;28;20658;-78
2022/07/09 04:20:25;;;;;;;0.80;0.80;;;18.20;94.40;;;;;;5053180;28;20590;-80
2022/07/09 04:22:52;;;;;;;0.75;0.73;;;18.40;94.40;;;;;;5051965;28;20760;-80
2022/07/09 04:25:21;;;;;;;0.70;0.70;;;18.40;94.50;;;;;;5057341;28;20699;-78
2022/07/09 04:27:48;;;;;;;0.68;0.68;;;18.40;94.50;;;;;;5052496;28;20612;-79
2022/07/09 04:30:15;;;;;;;0.70;0.70;;;18.50;94.50;;;;;;5050365;28;20219;-79
2022/07/09 04:32:44;;;;;;;0.77;0.77;;;18.60;94.40;;;;;;5049752;28;20191;-79
2022/07/09 04:35:11;;;;;;;0.85;0.85;;;18.70;94.50;;;;;;5047992;28;20218;-79
2022/07/09 04:37:38;;;;;;;0.60;0.60;;;18.80;94.80;;;;;;5053050;28;20221;-79
2022/07/09 04:40:06;;;;;;;0.90;0.85;;;18.90;95.00;;;;;;5054798;28;20229;-78
2022/07/09 04:42:34;;;;;;;0.95;0.88;;;18.90;95.00;;;;;;5048083;28;20207;-79
2022/07/09 04:45:01;;;;;;;0.90;0.90;;;19.00;95.00;;;;;;5047392;28;20233;-79
2022/07/09 04:47:28;;;;;;;0.85;0.85;;;19.10;95.00;;;;;;5049837;28;20278;-79
2022/07/09 04:49:56;;;;;;;1.30;1.10;;;19.20;94.80;;;;;;5053110;28;20799;-79
2022/07/09 04:52:26;;;;;;;0.88;0.88;;;19.20;94.60;;;;;;5048886;28;20206;-79
2022/07/09 04:54:54;;;;;;;0.80;0.80;;;19.20;94.70;;;;;;5045429;28;20754;-79
2022/07/09 04:57:21;;;;;;;0.73;0.73;;;19.20;94.80;;;;;;5044440;28;20308;-80
2022/07/09 04:59:48;;;;;;;0.90;0.90;;;19.30;94.80;;;;;;5046215;28;20195;-80
2022/07/09 05:02:15;;;;;;;1.10;1.00;;;19.40;94.90;;;;;;5055483;28;20210;-78
2022/07/09 05:04:43;;;;;;;1.15;0.85;;;19.50;95.00;;;;;;5047854;28;20215;-78
2022/07/09 05:07:11;;;;;;;2.53;1.02;;;19.40;94.80;;;;;;5048039;28;20293;-78
2022/07/09 05:09:38;;;;;;;0.80;0.80;;;19.50;94.70;;;;;;5046579;28;20206;-78
2022/07/09 05:12:08;;;;;;;0.80;0.80;;;19.50;94.60;;;;;;5054704;28;20237;-79
2022/07/09 05:14:35;;;;;;;1.67;0.80;;;19.70;94.60;;;;;;5048358;28;20210;-78
2022/07/09 05:17:02;;;;;;;2.20;0.80;;;19.80;94.40;;;;;;5053881;28;20217;-80
2022/07/09 05:19:29;;;;;;;1.05;0.90;;;19.80;94.50;;;;;;5059991;28;21007;-78
2022/07/09 05:21:56;;;;;;;1.92;0.95;;;19.90;94.50;;;;;;5051238;28;20275;-77
2022/07/09 05:24:25;;;;;;;2.30;1.13;;;19.80;94.50;;;;;;5052394;28;20194;-77
2022/07/09 05:26:52;;;;;;;1.88;1.00;;;19.80;95.00;;;;;;5055395;28;20211;-77
2022/07/09 05:29:22;;;;;;;1.25;1.15;;;19.90;95.00;;;;;;5054065;28;20244;-78
2022/07/09 05:31:50;;;;;;;1.05;0.98;;;20.00;94.70;;;;;;5043870;28;20276;-77
2022/07/09 05:34:17;;;;;;;0.80;0.80;;;20.20;94.50;;;;;;5051757;28;20203;-77
2022/07/09 05:36:44;;;;;;;0.90;0.90;;;20.30;94.40;;;;;;5054204;28;20226;-77
2022/07/09 05:39:12;;;;;;;1.98;0.90;;;20.40;94.40;;;;;;5050159;28;20206;-77
2022/07/09 05:41:40;;;;;;;1.30;0.90;;;20.60;94.50;;;;;;5050319;28;20218;-77
2022/07/09 05:44:08;;;;;;;1.00;0.90;;;20.60;94.60;;;;;;5050509;28;20194;-79
2022/07/09 05:46:35;;;;;;;0.88;0.88;;;20.60;94.50;;;;;;5052282;28;20223;-79
2022/07/09 05:49:03;;;;;;;1.25;0.90;;;20.60;94.60;;;;;;5049931;28;20301;-79
2022/07/09 05:51:30;;;;;;;1.05;0.95;;;20.70;94.90;;;;;;5054417;28;20219;-79
2022/07/09 05:53:57;;;;;;;0.93;0.90;;;20.90;94.70;;;;;;5053269;28;20195;-81
2022/07/09 05:56:24;;;;;;;0.70;0.70;;;21.10;94.70;;;;;;5053296;28;20281;-79
2022/07/09 05:58:53;;;;;;;1.33;0.73;;;21.40;94.50;;;;;;5058070;28;20596;-79
2022/07/09 06:01:20;;;;;;;0.90;0.90;;;21.60;94.20;;;;;;5052479;28;20227;-79
2022/07/09 06:03:47;;;;;;;1.10;1.00;;;21.70;93.70;;;;;;5056477;28;20203;-79
2022/07/09 06:06:14;;;;;;;1.00;1.00;;;21.70;93.70;;;;;;5056251;28;20230;-79
2022/07/09 06:08:41;;;;;;;1.50;0.95;;;21.70;93.80;;;;;;5055034;28;20290;-79
2022/07/09 06:11:08;;;;;;;1.75;0.93;;;21.80;94.30;;;;;;5048901;28;20211;-78
2022/07/09 06:13:35;;;;;;;1.58;1.08;;;21.70;94.10;;;;;;5041893;28;20262;-78
2022/07/09 06:16:04;;;;;;;2.20;0.95;;;21.60;93.60;;;;;;5051993;28;20214;-78
2022/07/09 06:18:31;;;;;;;1.30;0.93;;;21.50;93.50;;;;;;5052715;28;20210;-77
2022/07/09 06:21:00;;;;;;;0.85;0.75;;;21.40;93.70;;;;;;5051032;28;20223;-78
2022/07/09 06:23:27;;;;;;;9.15;1.20;;;21.40;94.00;;;;;;5053557;28;20203;-78
2022/07/09 06:25:55;;;;;;;4.97;1.05;;;21.40;94.00;;;;;;5053248;28;20213;-78
2022/07/09 06:28:22;;;;;;;2.00;1.02;;;21.50;93.90;;;;;;5046182;28;20920;-78
2022/07/09 06:30:50;;;;;;;1.30;0.88;;;21.60;93.70;;;;;;5051667;28;20222;-78
2022/07/09 06:33:18;;;;;;;0.90;0.90;;;21.60;93.60;;;;;;5045963;28;20209;-78
2022/07/09 06:35:45;;;;;;;1.20;1.10;;;21.70;93.40;;;;;;5047037;28;20214;-79
2022/07/09 06:38:12;;;;;;;1.13;1.00;;;21.70;93.70;;;;;;5052309;28;20230;-79
2022/07/09 06:40:39;;;;;;;6.18;1.02;;;21.80;93.60;;;;;;5047077;28;20238;-80
2022/07/09 06:43:08;;;;;;;2.15;1.30;;;21.90;93.70;;;;;;5043197;28;20206;-79
2022/07/09 06:45:35;;;;;;;1.38;0.93;;;21.90;93.40;;;;;;5036049;28;20738;-78
2022/07/09 06:48:03;;;;;;;1.10;1.00;;;22.00;93.00;;;;;;5046053;28;20191;-79
2022/07/09 06:50:31;;;;;;;1.33;0.90;;;22.10;92.90;;;;;;5040977;28;20219;-78
2022/07/09 06:52:58;;;;;;;9.77;1.70;;;22.10;93.20;;;;;;5042657;28;20210;-79
2022/07/09 06:55:26;;;;;;;1.38;1.13;;;22.10;93.10;;;;;;5041152;28;20245;-78
2022/07/09 06:57:53;;;;;;;1.45;1.00;;;22.10;93.00;;;;;;5037178;28;20227;-78
2022/07/09 07:00:20;;;;;;;4.82;1.52;;;22.20;93.30;;;;;;5038561;28;20787;-77
2022/07/09 07:02:47;;;;;;;3.38;1.27;;;22.50;93.40;;;;;;5038883;28;20202;-78
2022/07/09 07:05:14;;;;;;;2.60;1.20;;;22.60;92.80;;;;;;5040224;28;20255;-78
2022/07/09 07:07:43;;;;;;;4.20;1.10;;;22.60;93.00;;;;;;5048919;28;20195;-78
2022/07/09 07:10:11;;;;;;;1.38;1.17;;;22.70;92.40;;;;;;5048057;28;20725;-78
2022/07/09 07:12:38;;;;;;;1.48;1.00;;;22.60;92.30;;;;;;5038405;28;20612;-79
2022/07/09 07:15:05;;;;;;;2.28;1.00;;;22.70;92.70;;;;;;5050291;28;20641;-78
2022/07/09 07:17:32;;;;;;;1.73;1.05;;;23.00;92.70;;;;;;5045052;28;20215;-78
2022/07/09 07:20:00;;;;;;;1.23;0.95;;;23.20;92.40;;;;;;5044962;28;20582;-78
2022/07/09 07:22:27;;;;;;;2.38;1.35;;;23.40;92.90;;;;;;5047216;28;20203;-78
2022/07/09 07:24:55;;;;;;;3.08;1.05;;;23.50;92.00;;;;;;5049147;28;20249;-79
2022/07/09 07:27:22;;;;;;;1.20;1.10;;;23.60;92.10;;;;;;5046609;28;20542;-78
2022/07/09 07:29:49;;;;;;;7.90;1.95;;;23.70;92.60;;;;;;5048065;28;20621;-78
2022/07/09 07:32:17;;;;;;;1.58;1.00;;;23.80;92.00;;;;;;5048225;28;20199;-78
2022/07/09 07:34:44;;;;;;;3.28;1.45;;;23.80;91.90;;;;;;5051325;28;20202;-78
2022/07/09 07:37:11;;;;;;;2.85;1.17;;;24.00;92.20;;;;;;5040986;28;20749;-78
2022/07/09 07:39:38;;;;;;;1.23;1.10;;;24.20;91.70;;;;;;5040471;28;20195;-78
2022/07/09 07:42:08;;;;;;;1.08;1.00;;;24.40;91.10;;;;;;5050077;28;20275;-78
2022/07/09 07:44:35;;;;;;;18.83;2.72;;;24.40;91.40;;;;;;5048271;28;20650;-78
2022/07/09 07:47:02;;;;;;;2.25;1.10;;;24.30;90.30;;;;;;5046449;28;20218;-79
2022/07/09 07:49:29;;;;;;;0.95;0.88;;;24.30;90.20;;;;;;5053484;28;20260;-78
2022/07/09 07:51:56;;;;;;;0.98;0.90;;;24.30;90.10;;;;;;5046324;28;20637;-78
2022/07/09 07:54:23;;;;;;;1.08;0.88;;;24.30;89.40;;;;;;5041137;28;20969;-78
2022/07/09 07:56:51;;;;;;;1.23;1.13;;;24.40;89.10;;;;;;5048001;28;20501;-78
2022/07/09 07:59:20;;;;;;;1.55;0.90;;;24.30;88.60;;;;;;5048906;28;20202;-78
2022/07/09 08:01:47;;;;;;;0.82;0.82;;;24.20;89.30;;;;;;5048710;28;20226;-79
2022/07/09 08:04:14;;;;;;;0.80;0.80;;;24.40;90.10;;;;;;5047700;28;20328;-80
2022/07/09 08:06:42;;;;;;;1.20;1.10;;;24.70;90.00;;;;;;5043760;28;20222;-78
2022/07/09 08:09:10;;;;;;;1.08;1.00;;;24.80;88.80;;;;;;5050062;28;20194;-78
2022/07/09 08:11:37;;;;;;;1.40;1.10;;;24.70;88.50;;;;;;5044908;28;20313;-78
2022/07/09 08:14:05;;;;;;;1.42;0.88;;;24.70;88.50;;;;;;5049410;28;20248;-78
2022/07/09 08:16:33;;;;;;;1.77;1.10;;;24.60;89.20;;;;;;5036835;28;20226;-79
2022/07/09 08:19:00;;;;;;;1.02;0.93;;;24.80;88.20;;;;;;5032608;28;20242;-78
2022/07/09 08:21:27;;;;;;;1.13;1.00;;;24.90;87.80;;;;;;5038439;28;20566;-78
2022/07/09 08:23:55;;;;;;;1.63;0.93;;;25.00;87.60;;;;;;5045181;28;20226;-78
2022/07/09 08:26:23;;;;;;;1.75;0.93;;;25.00;86.70;;;;;;5038050;28;20215;-78
2022/07/09 08:28:51;;;;;;;1.42;0.90;;;25.00;86.90;;;;;;5044410;28;20210;-78
2022/07/09 08:31:19;;;;;;;2.78;1.10;;;25.10;87.10;;;;;;5041380;28;20235;-78
2022/07/09 08:33:48;;;;;;;1.38;0.93;;;25.30;87.90;;;;;;5045161;28;20210;-79
2022/07/09 08:36:15;;;;;;;1.08;0.80;;;25.50;86.30;;;;;;5049011;28;20223;-78
2022/07/09 08:38:43;;;;;;;1.58;0.90;;;25.60;85.70;;;;;;5041234;28;20215;-78
2022/07/09 08:41:10;;;;;;;1.08;0.95;;;25.60;86.10;;;;;;5042095;28;20214;-78
2022/07/09 08:43:38;;;;;;;1.58;1.00;;;25.60;86.10;;;;;;5045424;28;20775;-79
2022/07/09 08:46:06;;;;;;;1.35;1.00;;;25.60;87.10;;;;;;5041190;28;20226;-78
2022/07/09 08:48:35;;;;;;;1.17;0.90;;;25.70;87.30;;;;;;5047760;28;20673;-79
2022/07/09 08:51:05;;;;;;;1.55;1.00;;;25.70;86.20;;;;;;5042888;28;20222;-79
2022/07/09 08:53:32;;;;;;;0.70;0.70;;;25.70;87.20;;;;;;5050337;28;20554;-79
2022/07/09 08:55:59;;;;;;;0.98;0.90;;;25.70;85.40;;;;;;5046315;28;20581;-79
2022/07/09 08:58:27;;;;;;;0.90;0.90;;;25.90;84.90;;;;;;5042906;28;20671;-79
2022/07/09 09:00:55;;;;;;;1.90;1.05;;;26.10;84.70;;;;;;5050031;28;20324;-79
2022/07/09 09:03:23;;;;;;;1.40;0.75;;;26.20;84.30;;;;;;5051896;28;20200;-79
2022/07/09 09:06:04;;;;;;;1.10;1.00;;;26.60;85.00;;;;;;5047110;28;20226;-80
2022/07/09 09:08:36;;;;;;;1.15;0.90;;;26.60;85.80;;;;;;5042887;28;20309;-79
2022/07/09 09:11:04;;;;;;;1.55;1.00;;;26.70;85.80;;;;;;5045821;28;20225;-79
2022/07/09 09:13:31;;;;;;;1.10;0.90;;;26.80;84.80;;;;;;5047334;28;20201;-78
2022/07/09 09:16:08;;;;;;;0.90;0.90;;;27.00;84.50;;;;;;5049287;28;20218;-78
2022/07/09 09:18:36;;;;;;;0.70;0.70;;;26.90;82.60;;;;;;5044018;28;20214;-79
2022/07/09 09:21:07;;;;;;;0.77;0.70;;;26.90;84.00;;;;;;5045421;28;20684;-78
2022/07/09 09:23:42;;;;;;;0.93;0.93;;;27.00;81.70;;;;;;5043484;28;20226;-79
2022/07/09 09:26:10;;;;;;;1.17;0.80;;;26.80;80.70;;;;;;5043602;28;20225;-78
2022/07/09 09:28:47;;;;;;;0.77;0.70;;;26.80;82.70;;;;;;5047154;28;20218;-79
2022/07/09 09:31:22;;;;;;;1.00;0.68;;;26.90;82.10;;;;;;5050840;28;20312;-79
2022/07/09 09:33:49;;;;;;;0.90;0.90;;;27.20;81.90;;;;;;5046219;28;20273;-78
2022/07/09 09:36:32;;;;;;;1.55;0.75;;;27.30;82.10;;;;;;5048808;28;20603;-78
2022/07/09 09:39:13;;;;;;;1.15;0.95;;;27.40;82.90;;;;;;5052335;28;20301;-80
2022/07/09 09:41:41;;;;;;;1.00;0.90;;;27.60;82.50;;;;;;5048556;28;20758;-79
2022/07/09 09:44:09;;;;;;;1.20;1.08;;;27.50;81.90;;;;;;5056078;28;20202;-78
2022/07/09 09:46:38;;;;;;;0.88;0.60;;;27.50;80.10;;;;;;5047913;28;20247;-79
2022/07/09 09:49:07;;;;;;;0.63;0.57;;;27.50;80.30;;;;;;5051141;28;20764;-79
2022/07/09 09:51:39;;;;;;;1.23;0.88;;;27.50;79.70;;;;;;5046874;28;20574;-79
2022/07/09 09:54:06;;;;;;;1.83;0.77;;;27.60;82.00;;;;;;5052108;28;20689;-78
2022/07/09 09:56:34;;;;;;;0.90;0.70;;;27.90;81.00;;;;;;5049237;28;20313;-78
2022/07/09 09:59:02;;;;;;;1.10;0.85;;;28.00;79.50;;;;;;5051851;28;20322;-81
2022/07/09 10:01:30;;;;;;;0.90;0.70;;;28.30;80.70;;;;;;5048544;28;20594;-79
2022/07/09 10:03:58;;;;;;;3.92;0.75;;;28.40;80.10;;;;;;5050300;28;20286;-79
2022/07/09 10:06:26;;;;;;;0.70;0.70;;;28.50;80.20;;;;;;5051622;28;20250;-80
2022/07/09 10:08:55;;;;;;;1.05;0.90;;;28.40;81.10;;;;;;5049852;28;20297;-79
2022/07/09 10:11:23;;;;;;;0.75;0.75;;;28.20;81.20;;;;;;5045158;28;20229;-79
2022/07/09 10:13:55;;;;;;;1.02;0.60;;;28.30;81.60;;;;;;5052890;28;20203;-80
2022/07/09 10:16:34;;;;;;;1.45;0.90;;;28.40;81.20;;;;;;5051111;28;20690;-80
2022/07/09 10:19:02;;;;;;;0.93;0.60;;;28.50;79.50;;;;;;5044108;28;20222;-82
2022/07/09 10:21:36;;;;;;;1.10;0.50;;;28.60;79.90;;;;;;5050794;28;20574;-78
2022/07/09 10:24:07;;;;;;;1.23;0.95;;;28.70;78.40;;;;;;5047606;28;20194;-77
2022/07/09 10:26:44;;;;;;;0.90;0.70;;;28.80;76.60;;;;;;5048988;28;20458;-79
2022/07/09 10:29:23;;;;;;;0.90;0.52;;;28.80;76.10;;;;;;5049331;28;20198;-78
2022/07/09 10:31:51;;;;;;;0.88;0.60;;;28.90;75.60;;;;;;5048906;28;20222;-78
2022/07/09 10:34:32;;;;;;;0.63;0.63;;;29.00;76.00;;;;;;5044754;28;20203;-81
2022/07/09 10:37:00;;;;;;;0.73;0.68;;;29.10;73.50;;;;;;5046988;28;20305;-81
2022/07/09 10:39:29;;;;;;;0.80;0.55;;;29.40;76.10;;;;;;5048160;28;20589;-80
2022/07/09 10:42:04;;;;;;;1.13;0.60;;;29.60;74.60;;;;;;5041421;28;20233;-78
2022/07/09 10:44:36;;;;;;;1.02;0.70;;;29.40;73.60;;;;;;5047967;28;20205;-82
2022/07/09 10:47:04;;;;;;;0.60;0.52;;;29.40;73.40;;;;;;5047671;28;20230;-78
2022/07/09 10:49:35;;;;;;;0.55;0.50;;;29.40;72.30;;;;;;5048972;28;20203;-82
2022/07/09 10:52:02;;;;;;;0.40;0.40;;;29.40;72.00;;;;;;5048032;28;20306;-79
2022/07/09 10:54:31;;;;;;;0.75;0.52;;;29.40;72.80;;;;;;5045942;28;20198;-79
2022/07/09 10:56:59;;;;;;;0.60;0.60;;;29.40;73.50;;;;;;5048915;28;20214;-80
2022/07/09 10:59:27;;;;;;;0.50;0.50;;;29.40;72.30;;;;;;5047590;28;20217;-80
2022/07/09 11:01:55;;;;;;;0.45;0.45;;;29.60;72.00;;;;;;5046541;28;20220;-77
2022/07/09 11:04:29;;;;;;;1.25;0.70;;;29.60;71.50;;;;;;5045611;28;20244;-79
2022/07/09 11:06:57;;;;;;;1.02;0.50;;;29.70;71.40;;;;;;5041675;28;20217;-79
2022/07/09 11:09:28;;;;;;;0.75;0.70;;;29.70;71.10;;;;;;5054762;28;20197;-80
2022/07/09 11:11:56;;;;;;;0.57;0.50;;;29.70;70.80;;;;;;5048547;28;20310;-79
2022/07/09 11:14:24;;;;;;;0.77;0.70;;;29.90;71.00;;;;;;5053394;28;20198;-80
2022/07/09 11:16:58;;;;;;;0.65;0.65;;;30.10;71.20;;;;;;5050711;28;20221;-79
2022/07/09 11:19:26;;;;;;;0.50;0.50;;;30.00;70.30;;;;;;5039863;28;20333;-78
2022/07/09 11:22:03;;;;;;;0.50;0.50;;;30.10;69.80;;;;;;5045354;28;20238;-78
2022/07/09 11:24:30;;;;;;;0.50;0.47;;;30.30;69.30;;;;;;5040515;28;20302;-81
2022/07/09 11:27:03;;;;;;;0.73;0.50;;;30.20;69.40;;;;;;5043235;28;20467;-80
2022/07/09 11:29:31;;;;;;;0.98;0.60;;;30.20;68.40;;;;;;5046092;28;20677;-79
2022/07/09 11:31:58;;;;;;;0.57;0.50;;;30.10;68.40;;;;;;5041747;28;20221;-79
2022/07/09 11:34:25;;;;;;;0.57;0.47;;;30.10;68.10;;;;;;5047138;28;20723;-78
2022/07/09 11:36:54;;;;;;;1.65;0.57;;;30.30;68.10;;;;;;5041197;28;20215;-80
2022/07/09 11:39:26;;;;;;;1.10;0.50;;;30.20;68.40;;;;;;5044031;28;20680;-79
2022/07/09 11:41:53;;;;;;;0.50;0.50;;;30.20;68.40;;;;;;5047626;28;20222;-81
2022/07/09 11:44:24;;;;;;;1.52;0.70;;;30.20;68.40;;;;;;5048490;28;20624;-80
2022/07/09 11:47:05;;;;;;;0.75;0.50;;;30.20;68.50;;;;;;5045719;28;20222;-80
2022/07/09 11:49:40;;;;;;;0.60;0.60;;;30.40;68.20;;;;;;5045462;28;20206;-78
2022/07/09 11:52:20;;;;;;;0.70;0.70;;;30.80;66.90;;;;;;5039182;28;20229;-78
2022/07/09 11:54:58;;;;;;;0.60;0.40;;;31.00;65.90;;;;;;5045784;28;20202;-78
2022/07/09 11:57:25;;;;;;;0.65;0.50;;;31.00;64.80;;;;;;5046670;28;20497;-76
2022/07/09 11:59:53;;;;;;;1.67;0.50;;;31.00;66.20;;;;;;5044267;28;20219;-77
2022/07/09 12:02:29;;;;;;;0.50;0.50;;;31.00;66.00;;;;;;5043484;28;20210;-80
2022/07/09 12:04:57;;;;;;;0.90;0.60;;;30.90;66.50;;;;;;5041222;28;20428;-77
2022/07/09 12:07:24;;;;;;;0.40;0.40;;;30.90;66.90;;;;;;5033913;28;20226;-81
2022/07/09 12:09:59;;;;;;;0.40;0.40;;;30.70;65.90;;;;;;5040117;28;20214;-81
2022/07/09 12:12:27;;;;;;;0.40;0.40;;;30.70;65.70;;;;;;5040445;28;20644;-79
2022/07/09 12:14:56;;;;;;;0.40;0.40;;;30.80;65.70;;;;;;5035220;28;20578;-81
2022/07/09 12:17:25;;;;;;;0.60;0.40;;;31.00;64.40;;;;;;5038219;28;20282;-81
2022/07/09 12:19:53;;;;;;;0.60;0.60;;;31.10;65.40;;;;;;5038652;28;20218;-78
2022/07/09 12:22:20;;;;;;;0.40;0.40;;;31.00;64.90;;;;;;5039544;28;20294;-79
2022/07/09 12:24:48;;;;;;;0.85;0.80;;;31.00;63.90;;;;;;5040343;28;20194;-80
2022/07/09 12:27:15;;;;;;;2.42;0.55;;;30.90;63.80;;;;;;5040288;28;20206;-76
2022/07/09 12:29:42;;;;;;;0.60;0.60;;;30.90;64.20;;;;;;5036780;28;20190;-76
2022/07/09 12:32:11;;;;;;;0.95;0.60;;;31.30;65.30;;;;;;5036906;28;20954;-77
2022/07/09 12:34:38;;;;;;;2.22;0.50;;;31.70;66.60;;;;;;5036554;28;20195;-77
2022/07/09 12:37:05;;;;;;;0.85;0.47;;;32.10;65.80;;;;;;5038947;28;20934;-75
2022/07/09 12:39:32;;;;;;;0.90;0.55;;;32.10;64.90;;;;;;5047475;28;20206;-76
2022/07/09 12:41:59;;;;;;;0.65;0.60;;;31.90;64.00;;;;;;5044890;28;20683;-76
2022/07/09 12:44:27;;;;;;;1.58;0.60;;;31.70;64.80;;;;;;5039546;28;20191;-77
2022/07/09 12:46:54;;;;;;;0.30;0.30;;;31.50;63.20;;;;;;5049160;28;20267;-76
2022/07/09 12:49:23;;;;;;;0.93;0.50;;;31.50;64.10;;;;;;5035256;28;20236;-78
2022/07/09 12:51:50;;;;;;;1.27;0.70;;;31.40;63.50;;;;;;5042526;28;20236;-76
2022/07/09 12:54:17;;;;;;;0.55;0.45;;;31.40;63.90;;;;;;5035364;28;20206;-76
2022/07/09 12:56:45;;;;;;;0.50;0.50;;;31.10;63.20;;;;;;5036849;28;20215;-75
2022/07/09 12:59:12;;;;;;;0.52;0.52;;;30.90;62.80;;;;;;5036779;28;20230;-76